Time;durP1;ratioP1;P1;durP2;ratioP2;P2;SDS_P1;SDS_P2;PMS_P1;PMS_P2;Temp;Humidity;BMP_temperature;BMP_pressure;BME280_temperature;BME280_humidity;BME280_pressure;Samples;Min_cycle;Max_cycle;Signal;HPM_P1;HPM_P2
2022/04/09 00:00:46;;;;;;;0.10;0.10;;;2.10;99.90;;;;;;4925560;29;20097;-68
2022/04/09 00:03:12;;;;;;;0.10;0.10;;;2.20;99.90;;;;;;4928828;29;20036;-70
2022/04/09 00:05:37;;;;;;;0.10;0.10;;;2.30;99.90;;;;;;4928858;29;20103;-69
2022/04/09 00:08:03;;;;;;;0.10;0.10;;;2.30;99.90;;;;;;4929409;29;20067;-69
2022/04/09 00:10:29;;;;;;;0.10;0.10;;;2.30;99.90;;;;;;4933320;29;20020;-69
2022/04/09 00:12:55;;;;;;;0.10;0.10;;;2.30;99.90;;;;;;4933950;29;20079;-69
2022/04/09 00:15:20;;;;;;;0.10;0.10;;;2.30;99.90;;;;;;4926654;29;20395;-68
2022/04/09 00:17:47;;;;;;;0.10;0.10;;;2.30;99.90;;;;;;4926438;29;20088;-68
2022/04/09 00:20:14;;;;;;;0.10;0.10;;;2.30;99.90;;;;;;4912291;29;20035;-69
2022/04/09 00:22:40;;;;;;;0.10;0.10;;;2.30;99.90;;;;;;4930161;29;20047;-68
2022/04/09 00:25:11;;;;;;;0.10;0.10;;;2.20;99.90;;;;;;4932027;29;20478;-70
2022/04/09 00:27:37;;;;;;;0.10;0.10;;;2.20;99.90;;;;;;4935061;29;20059;-68
2022/04/09 00:30:04;;;;;;;0.10;0.10;;;2.30;99.90;;;;;;4944970;29;20051;-69
2022/04/09 00:32:30;;;;;;;0.10;0.10;;;2.30;99.90;;;;;;4942492;29;20127;-68
2022/04/09 00:34:56;;;;;;;0.10;0.10;;;2.30;99.90;;;;;;4930844;29;20547;-70
2022/04/09 00:37:24;;;;;;;0.10;0.10;;;2.40;99.90;;;;;;4927933;29;20106;-68
2022/04/09 00:39:50;;;;;;;0.10;0.10;;;2.40;99.90;;;;;;4934598;29;20032;-69
2022/04/09 00:42:18;;;;;;;0.08;0.08;;;2.40;99.90;;;;;;4936456;29;20475;-68
2022/04/09 00:44:44;;;;;;;0.10;0.10;;;2.30;99.90;;;;;;4952830;29;20019;-68
2022/04/09 00:47:10;;;;;;;0.10;0.10;;;2.40;99.90;;;;;;4939987;29;20511;-68
2022/04/09 00:49:37;;;;;;;0.10;0.10;;;2.40;99.90;;;;;;4945632;29;20114;-67
2022/04/09 00:52:05;;;;;;;0.10;0.10;;;2.30;99.90;;;;;;4924212;29;20019;-68
2022/04/09 00:54:31;;;;;;;0.10;0.10;;;2.20;99.90;;;;;;4942747;29;20045;-67
2022/04/09 00:57:04;;;;;;;0.10;0.10;;;2.30;99.90;;;;;;4933501;29;20034;-68
2022/04/09 00:59:33;;;;;;;0.10;0.10;;;2.20;99.90;;;;;;4935351;29;20034;-67
2022/04/09 01:02:01;;;;;;;0.10;0.10;;;2.30;99.90;;;;;;4919477;29;20100;-70
2022/04/09 01:04:27;;;;;;;0.10;0.10;;;2.30;99.90;;;;;;4933333;29;20042;-68
2022/04/09 01:06:55;;;;;;;0.10;0.10;;;2.40;99.90;;;;;;4932739;29;20028;-68
2022/04/09 01:09:21;;;;;;;0.10;0.10;;;2.30;99.90;;;;;;4936232;29;20110;-68
2022/04/09 01:11:47;;;;;;;0.10;0.10;;;2.30;99.90;;;;;;4945627;29;20110;-68
2022/04/09 01:14:13;;;;;;;0.10;0.10;;;2.30;99.90;;;;;;4946863;29;20028;-68
2022/04/09 01:16:39;;;;;;;0.10;0.10;;;2.30;99.90;;;;;;4924137;29;20035;-67
2022/04/09 01:19:05;;;;;;;0.10;0.10;;;2.40;99.90;;;;;;4932390;29;20114;-68
2022/04/09 01:21:31;;;;;;;0.10;0.10;;;2.40;99.90;;;;;;4940249;29;20028;-68
2022/04/09 01:23:57;;;;;;;0.10;0.10;;;2.40;99.90;;;;;;4931355;29;20551;-67
2022/04/09 01:26:23;;;;;;;0.10;0.10;;;2.40;99.90;;;;;;4932515;29;20027;-68
2022/04/09 01:28:49;;;;;;;0.10;0.10;;;2.40;99.90;;;;;;4931814;29;20034;-69
2022/04/09 01:31:16;;;;;;;0.10;0.10;;;2.30;99.90;;;;;;4932284;29;20032;-69
2022/04/09 01:33:42;;;;;;;0.10;0.10;;;2.40;99.90;;;;;;4932279;29;20575;-68
2022/04/09 01:36:08;;;;;;;0.10;0.10;;;2.40;99.90;;;;;;4932816;29;20047;-68
2022/04/09 01:38:35;;;;;;;0.10;0.10;;;2.50;99.90;;;;;;4934429;29;20046;-68
2022/04/09 01:41:01;;;;;;;0.10;0.10;;;2.50;99.90;;;;;;4939945;29;20043;-68
2022/04/09 01:43:27;;;;;;;0.10;0.10;;;2.50;99.90;;;;;;4914320;29;20756;-68
2022/04/09 01:45:53;;;;;;;0.10;0.10;;;2.60;99.90;;;;;;4914768;29;20056;-68
2022/04/09 01:48:19;;;;;;;0.10;0.10;;;2.50;99.90;;;;;;4930588;29;20024;-68
2022/04/09 01:50:45;;;;;;;0.10;0.10;;;2.60;99.90;;;;;;4943180;29;20041;-69
2022/04/09 01:53:10;;;;;;;0.10;0.10;;;2.60;99.90;;;;;;4951773;29;20110;-68
2022/04/09 01:55:37;;;;;;;0.10;0.10;;;2.60;99.90;;;;;;4945719;29;20491;-67
2022/04/09 01:58:02;;;;;;;0.10;0.10;;;2.60;99.90;;;;;;4940199;29;20049;-68
2022/04/09 02:00:28;;;;;;;0.10;0.10;;;2.50;99.90;;;;;;4935690;29;20126;-67
2022/04/09 02:02:53;;;;;;;0.10;0.10;;;2.60;99.90;;;;;;4935966;29;20115;-68
2022/04/09 02:05:19;;;;;;;0.10;0.10;;;2.60;99.90;;;;;;4941955;29;20028;-68
2022/04/09 02:07:47;;;;;;;0.10;0.10;;;2.60;99.90;;;;;;4933421;29;20031;-69
2022/04/09 02:10:15;;;;;;;0.10;0.10;;;2.60;99.90;;;;;;4941969;29;20077;-67
2022/04/09 02:12:44;;;;;;;0.10;0.10;;;2.60;99.90;;;;;;4937965;29;20027;-69
2022/04/09 02:15:12;;;;;;;0.10;0.10;;;2.60;99.90;;;;;;4938803;29;20024;-68
2022/04/09 02:17:39;;;;;;;0.10;0.10;;;2.60;99.90;;;;;;4939583;29;20066;-67
2022/04/09 02:20:06;;;;;;;0.10;0.10;;;2.60;99.90;;;;;;4950917;29;20027;-68
2022/04/09 02:22:36;;;;;;;0.10;0.10;;;2.60;99.90;;;;;;4941438;29;20039;-68
2022/04/09 02:25:03;;;;;;;0.10;0.10;;;2.70;99.90;;;;;;4943845;29;20083;-68
2022/04/09 02:27:29;;;;;;;0.10;0.10;;;2.80;99.90;;;;;;4935386;29;20039;-68
2022/04/09 02:29:54;;;;;;;0.10;0.10;;;2.80;99.90;;;;;;4935749;29;20023;-67
2022/04/09 02:32:20;;;;;;;0.10;0.10;;;2.80;99.90;;;;;;4934118;29;20395;-68
2022/04/09 02:34:45;;;;;;;0.10;0.10;;;2.90;99.90;;;;;;4940542;29;20115;-68
2022/04/09 02:37:11;;;;;;;0.10;0.10;;;2.80;99.90;;;;;;4935535;29;20484;-67
2022/04/09 02:39:37;;;;;;;0.10;0.10;;;2.90;99.90;;;;;;4928672;29;20115;-69
2022/04/09 02:42:03;;;;;;;0.10;0.10;;;2.90;99.90;;;;;;4949959;29;20027;-68
2022/04/09 02:44:30;;;;;;;0.10;0.10;;;2.90;99.90;;;;;;4934871;29;20792;-67
2022/04/09 02:46:56;;;;;;;0.10;0.10;;;2.90;99.90;;;;;;4943186;29;20024;-68
2022/04/09 02:49:21;;;;;;;0.10;0.10;;;2.90;99.90;;;;;;4933813;29;20566;-68
2022/04/09 02:51:47;;;;;;;0.10;0.10;;;2.80;99.90;;;;;;4937514;29;20028;-68
2022/04/09 02:54:15;;;;;;;0.10;0.10;;;2.80;99.90;;;;;;4939722;29;20036;-68
2022/04/09 02:56:43;;;;;;;0.10;0.10;;;2.90;99.90;;;;;;4942462;29;20051;-67
2022/04/09 02:59:13;;;;;;;0.28;0.28;;;2.80;99.90;;;;;;4934637;29;20038;-68
2022/04/09 03:01:43;;;;;;;0.10;0.10;;;2.90;99.90;;;;;;4934449;29;20085;-69
2022/04/09 03:04:09;;;;;;;0.10;0.10;;;2.90;99.90;;;;;;4934360;29;20576;-68
2022/04/09 03:06:35;;;;;;;0.10;0.10;;;2.90;99.90;;;;;;4942154;29;20019;-68
2022/04/09 03:09:00;;;;;;;0.10;0.10;;;2.90;99.90;;;;;;4933205;29;20373;-68
2022/04/09 03:11:26;;;;;;;0.10;0.10;;;2.90;99.90;;;;;;4943145;29;20074;-68
2022/04/09 03:13:52;;;;;;;0.10;0.10;;;2.90;99.90;;;;;;4951046;29;20391;-67
2022/04/09 03:16:17;;;;;;;0.10;0.10;;;3.00;99.90;;;;;;4935132;29;20028;-70
2022/04/09 03:18:43;;;;;;;0.10;0.10;;;3.00;99.90;;;;;;4926581;29;20048;-68
2022/04/09 03:21:09;;;;;;;0.10;0.10;;;3.00;99.90;;;;;;4942266;29;20563;-67
2022/04/09 03:23:34;;;;;;;0.10;0.10;;;3.10;99.90;;;;;;4916072;29;20036;-68
2022/04/09 03:26:00;;;;;;;0.10;0.10;;;3.10;99.90;;;;;;4933907;29;20475;-68
2022/04/09 03:28:27;;;;;;;0.10;0.10;;;3.10;99.90;;;;;;4921571;29;20055;-68
2022/04/09 03:30:52;;;;;;;0.10;0.10;;;3.20;99.90;;;;;;4915593;29;20028;-67
2022/04/09 03:33:18;;;;;;;0.10;0.10;;;3.20;99.90;;;;;;4922452;29;20539;-68
2022/04/09 03:35:47;;;;;;;0.10;0.10;;;3.20;99.90;;;;;;4937374;29;20137;-67
2022/04/09 03:38:13;;;;;;;0.10;0.10;;;3.30;99.90;;;;;;4937539;29;20027;-68
2022/04/09 03:40:39;;;;;;;0.10;0.10;;;3.40;99.90;;;;;;4921423;29;20039;-67
2022/04/09 03:43:05;;;;;;;0.30;0.30;;;3.40;99.90;;;;;;4952010;28;20055;-68
2022/04/09 03:45:30;;;;;;;0.10;0.10;;;3.40;99.90;;;;;;4929553;29;20036;-68
2022/04/09 03:47:56;;;;;;;0.22;0.22;;;3.40;99.90;;;;;;4939526;29;20087;-67
2022/04/09 03:50:22;;;;;;;0.10;0.10;;;3.40;99.90;;;;;;4934456;29;20087;-70
2022/04/09 03:52:48;;;;;;;0.10;0.10;;;3.40;99.90;;;;;;4921795;29;20111;-69
2022/04/09 03:55:14;;;;;;;0.10;0.10;;;3.40;99.90;;;;;;4927066;29;20566;-70
2022/04/09 03:57:40;;;;;;;0.10;0.10;;;3.40;99.90;;;;;;4923440;29;20479;-67
2022/04/09 04:00:08;;;;;;;0.10;0.10;;;3.50;99.90;;;;;;4934154;29;20035;-67
2022/04/09 04:02:34;;;;;;;0.10;0.10;;;3.40;99.90;;;;;;4933344;29;20032;-67
2022/04/09 04:05:02;;;;;;;0.10;0.10;;;3.40;99.90;;;;;;4934162;29;20028;-68
2022/04/09 04:07:29;;;;;;;0.10;0.10;;;3.50;99.90;;;;;;4943350;29;20031;-68
2022/04/09 04:09:55;;;;;;;0.10;0.10;;;3.50;99.90;;;;;;4942266;28;20028;-68
2022/04/09 04:12:20;;;;;;;0.75;0.75;;;3.40;99.90;;;;;;4941522;29;20042;-68
2022/04/09 04:14:46;;;;;;;0.10;0.10;;;3.40;99.90;;;;;;4928724;29;20434;-68
2022/04/09 04:17:12;;;;;;;0.30;0.30;;;3.50;99.90;;;;;;4914864;29;20036;-70
2022/04/09 04:19:39;;;;;;;0.10;0.10;;;3.50;99.90;;;;;;4930426;29;20059;-67
2022/04/09 04:22:05;;;;;;;0.10;0.10;;;3.50;99.90;;;;;;4936554;29;20062;-68
2022/04/09 04:24:31;;;;;;;0.10;0.10;;;3.40;99.90;;;;;;4950454;29;20023;-68
2022/04/09 04:26:57;;;;;;;0.10;0.10;;;3.30;99.90;;;;;;4940578;29;20022;-68
2022/04/09 04:29:22;;;;;;;1.65;1.55;;;3.30;99.90;;;;;;4940330;29;20476;-67
2022/04/09 04:31:48;;;;;;;0.10;0.10;;;3.30;99.90;;;;;;4914907;29;20072;-68
2022/04/09 04:34:13;;;;;;;0.10;0.10;;;3.20;99.90;;;;;;4914443;29;20051;-68
2022/04/09 04:36:39;;;;;;;0.10;0.10;;;3.20;99.90;;;;;;4934720;29;20584;-68
2022/04/09 04:39:05;;;;;;;0.00;0.00;;;3.20;99.90;;;;;;4941190;29;20068;-69
2022/04/09 04:41:30;;;;;;;0.10;0.10;;;3.20;99.90;;;;;;4936540;29;20106;-67
2022/04/09 04:43:56;;;;;;;0.10;0.10;;;3.10;99.90;;;;;;4938894;29;20042;-68
2022/04/09 04:46:22;;;;;;;0.17;0.17;;;3.10;99.90;;;;;;4933162;29;20020;-68
2022/04/09 04:48:47;;;;;;;0.10;0.10;;;3.10;99.90;;;;;;4927738;29;20032;-68
2022/04/09 04:51:13;;;;;;;0.10;0.10;;;3.20;99.90;;;;;;4921635;29;20028;-68
2022/04/09 04:53:39;;;;;;;0.10;0.10;;;3.20;99.90;;;;;;4944646;29;20023;-68
2022/04/09 04:56:04;;;;;;;0.25;0.25;;;3.20;99.90;;;;;;4942404;29;20040;-67
2022/04/09 04:58:30;;;;;;;0.10;0.10;;;3.20;99.90;;;;;;4940855;29;20036;-68
2022/04/09 05:00:56;;;;;;;0.10;0.10;;;3.30;99.90;;;;;;4932162;29;20174;-69
2022/04/09 05:03:22;;;;;;;0.10;0.10;;;3.30;99.90;;;;;;4932906;29;20035;-67
2022/04/09 05:05:47;;;;;;;0.10;0.10;;;3.30;99.90;;;;;;4930918;29;20436;-67
2022/04/09 05:08:13;;;;;;;0.60;0.60;;;3.40;99.90;;;;;;4937933;29;20032;-67
2022/04/09 05:10:39;;;;;;;0.10;0.10;;;3.40;99.90;;;;;;4946636;29;20020;-68
2022/04/09 05:13:05;;;;;;;0.10;0.10;;;3.40;99.90;;;;;;4933975;29;20036;-68
2022/04/09 05:15:31;;;;;;;0.10;0.10;;;3.40;99.90;;;;;;4929049;29;20032;-67
2022/04/09 05:17:56;;;;;;;0.10;0.10;;;3.40;99.90;;;;;;4932664;29;20023;-66
2022/04/09 05:20:22;;;;;;;0.10;0.10;;;3.50;99.90;;;;;;4932719;29;20174;-67
2022/04/09 05:22:48;;;;;;;0.15;0.15;;;3.60;99.90;;;;;;4944541;29;20491;-68
2022/04/09 05:25:17;;;;;;;0.10;0.10;;;3.60;99.90;;;;;;4947245;29;20467;-68
2022/04/09 05:27:43;;;;;;;0.20;0.20;;;3.60;99.90;;;;;;4936324;29;20166;-69
2022/04/09 05:30:09;;;;;;;0.10;0.10;;;3.60;99.90;;;;;;4936379;29;20102;-68
2022/04/09 05:32:36;;;;;;;0.10;0.10;;;3.70;99.90;;;;;;4931699;29;20168;-68
2022/04/09 05:35:03;;;;;;;0.20;0.20;;;3.50;99.90;;;;;;4938951;29;20034;-67
2022/04/09 05:37:30;;;;;;;0.10;0.10;;;3.60;99.90;;;;;;4940504;29;20534;-67
2022/04/09 05:39:56;;;;;;;0.10;0.10;;;3.60;99.90;;;;;;4928345;29;20463;-68
2022/04/09 05:42:24;;;;;;;0.10;0.10;;;3.60;99.90;;;;;;4934718;29;20035;-68
2022/04/09 05:44:50;;;;;;;0.15;0.15;;;3.70;99.90;;;;;;4928172;29;20031;-68
2022/04/09 05:47:15;;;;;;;0.10;0.10;;;3.70;99.90;;;;;;4942425;29;20136;-69
2022/04/09 05:49:41;;;;;;;0.20;0.20;;;3.70;99.90;;;;;;4938131;29;20072;-69
2022/04/09 05:52:07;;;;;;;0.10;0.10;;;3.70;99.90;;;;;;4934031;29;20024;-68
2022/04/09 05:54:32;;;;;;;0.10;0.10;;;3.60;99.90;;;;;;4974640;22;20074;-65
2022/04/09 05:56:59;;;;;;;0.10;0.10;;;3.60;99.90;;;;;;4968515;28;20027;-65
2022/04/09 05:59:26;;;;;;;0.20;0.20;;;3.60;99.90;;;;;;4969992;28;20027;-64
2022/04/09 06:01:52;;;;;;;17.25;7.32;;;4.20;99.90;;;;;;4970472;28;20138;-65
2022/04/09 06:04:20;;;;;;;0.22;0.22;;;3.60;99.90;;;;;;4970554;28;20505;-64
2022/04/09 06:06:46;;;;;;;0.10;0.10;;;3.70;99.90;;;;;;4953206;28;20043;-63
2022/04/09 06:09:12;;;;;;;0.38;0.38;;;3.70;99.90;;;;;;4964217;28;20112;-64
2022/04/09 06:11:38;;;;;;;0.10;0.10;;;3.70;99.90;;;;;;4961755;28;20498;-64
2022/04/09 06:14:04;;;;;;;0.32;0.32;;;3.60;99.90;;;;;;4967115;28;20062;-64
2022/04/09 06:16:32;;;;;;;0.10;0.10;;;3.60;99.90;;;;;;4951269;29;20035;-65
2022/04/09 06:18:57;;;;;;;0.10;0.10;;;3.60;99.90;;;;;;4951444;29;20028;-65
2022/04/09 06:21:23;;;;;;;0.10;0.10;;;3.70;99.90;;;;;;4975835;28;20026;-65
2022/04/09 06:23:49;;;;;;;0.10;0.10;;;3.70;99.90;;;;;;4968515;28;20410;-64
2022/04/09 06:26:14;;;;;;;0.10;0.10;;;3.70;99.90;;;;;;4952337;28;20106;-65
2022/04/09 06:31:15;;;;;;;0.10;0.10;;;3.80;99.90;;;;;;5408609;23;20050;-73
2022/04/09 06:33:41;;;;;;;0.10;0.10;;;4.00;99.90;;;;;;4987701;28;20046;-67
2022/04/09 06:36:06;;;;;;;0.10;0.10;;;4.50;99.90;;;;;;4988975;28;20081;-68
2022/04/09 06:38:35;;;;;;;0.10;0.10;;;4.40;99.90;;;;;;4993400;28;20030;-68
2022/04/09 06:41:00;;;;;;;0.10;0.10;;;4.20;99.90;;;;;;4988885;28;20490;-67
2022/04/09 06:43:26;;;;;;;0.52;0.52;;;4.20;99.90;;;;;;5005030;23;20065;-71
2022/04/09 06:45:52;;;;;;;1.65;1.55;;;4.30;99.90;;;;;;4988185;28;20037;-71
2022/04/09 06:48:18;;;;;;;0.10;0.10;;;4.20;99.90;;;;;;5004244;28;20030;-72
2022/04/09 06:50:44;;;;;;;0.10;0.10;;;4.10;99.90;;;;;;4994902;28;20142;-71
2022/04/09 06:53:09;;;;;;;0.10;0.10;;;4.10;99.90;;;;;;4997226;28;20133;-70
2022/04/09 06:55:35;;;;;;;0.10;0.10;;;4.00;99.90;;;;;;4969328;28;20038;-69
2022/04/09 06:58:02;;;;;;;0.10;0.10;;;4.10;99.90;;;;;;4971429;28;20031;-71
2022/04/09 07:00:28;;;;;;;0.10;0.10;;;4.00;99.90;;;;;;4968514;28;20054;-70
2022/04/09 07:02:54;;;;;;;0.10;0.10;;;4.00;99.90;;;;;;4975485;28;20022;-71
2022/04/09 07:05:20;;;;;;;0.10;0.10;;;4.00;99.90;;;;;;4978573;28;20446;-71
2022/04/09 07:07:49;;;;;;;0.10;0.10;;;4.00;99.90;;;;;;4972600;28;20103;-70
2022/04/09 07:10:15;;;;;;;0.10;0.10;;;4.10;99.90;;;;;;4980497;28;20474;-70
2022/04/09 07:12:41;;;;;;;0.10;0.10;;;4.10;99.90;;;;;;4970623;28;20054;-71
2022/04/09 07:15:07;;;;;;;0.10;0.10;;;4.20;99.90;;;;;;4977615;28;20838;-70
2022/04/09 07:17:33;;;;;;;0.10;0.10;;;4.30;99.90;;;;;;4976998;28;20030;-70
2022/04/09 07:20:00;;;;;;;0.10;0.10;;;4.40;99.90;;;;;;4951915;28;20030;-71
2022/04/09 07:22:26;;;;;;;0.10;0.10;;;4.40;99.90;;;;;;4954453;28;20427;-71
2022/04/09 07:24:52;;;;;;;0.10;0.10;;;4.60;99.90;;;;;;4984263;28;20508;-70
2022/04/09 07:27:18;;;;;;;0.10;0.10;;;4.80;99.90;;;;;;4974185;28;20022;-72
2022/04/09 07:29:44;;;;;;;0.10;0.10;;;4.90;99.90;;;;;;4973337;28;20486;-70
2022/04/09 07:32:10;;;;;;;0.10;0.10;;;4.90;99.90;;;;;;4975536;28;20474;-70
2022/04/09 07:34:35;;;;;;;0.10;0.10;;;5.00;99.90;;;;;;4971260;28;20062;-71
2022/04/09 07:37:01;;;;;;;0.10;0.10;;;5.10;99.90;;;;;;4979380;28;20089;-71
2022/04/09 07:39:26;;;;;;;0.40;0.40;;;5.20;99.90;;;;;;4971712;28;20498;-71
2022/04/09 07:41:52;;;;;;;0.10;0.10;;;5.30;99.90;;;;;;4976988;28;20038;-71
2022/04/09 07:44:18;;;;;;;0.10;0.10;;;5.30;99.90;;;;;;4984547;28;20030;-71
2022/04/09 07:46:43;;;;;;;0.10;0.10;;;5.60;99.90;;;;;;4970588;28;20031;-70
2022/04/09 07:49:12;;;;;;;0.10;0.10;;;5.40;99.90;;;;;;4972943;28;20067;-71
2022/04/09 07:51:37;;;;;;;0.10;0.10;;;5.70;99.90;;;;;;4971380;28;20062;-72
2022/04/09 07:54:03;;;;;;;0.10;0.10;;;5.80;99.90;;;;;;4971447;28;20070;-69
2022/04/09 07:56:29;;;;;;;0.10;0.10;;;5.90;99.90;;;;;;4978069;28;20438;-70
2022/04/09 07:58:54;;;;;;;0.10;0.10;;;5.90;99.90;;;;;;4968271;28;20542;-69
2022/04/09 08:01:20;;;;;;;0.10;0.10;;;5.90;99.90;;;;;;4982218;28;20022;-72
2022/04/09 08:03:45;;;;;;;0.10;0.10;;;5.90;99.90;;;;;;4972336;28;20026;-70
2022/04/09 08:06:11;;;;;;;0.10;0.10;;;5.70;99.90;;;;;;4968198;28;20022;-69
2022/04/09 08:08:37;;;;;;;0.10;0.10;;;5.70;99.90;;;;;;4970642;28;20159;-70
2022/04/09 08:11:02;;;;;;;0.10;0.10;;;5.90;99.90;;;;;;4971425;28;20053;-70
2022/04/09 08:13:28;;;;;;;0.32;0.32;;;5.80;99.90;;;;;;4970435;28;20038;-73
2022/04/09 08:15:54;;;;;;;0.10;0.10;;;5.90;99.90;;;;;;4973681;28;20019;-71
2022/04/09 08:18:20;;;;;;;0.63;0.63;;;5.80;99.90;;;;;;4972028;28;20033;-70
2022/04/09 08:20:46;;;;;;;0.10;0.10;;;5.80;99.90;;;;;;4972777;28;20043;-73
2022/04/09 08:23:12;;;;;;;0.10;0.10;;;5.80;99.90;;;;;;4968804;28;20030;-71
2022/04/09 08:25:38;;;;;;;0.10;0.10;;;5.80;99.90;;;;;;4970279;28;20027;-71
2022/04/09 08:28:04;;;;;;;0.10;0.10;;;5.80;99.90;;;;;;4973112;28;20549;-71
2022/04/09 08:30:29;;;;;;;0.10;0.10;;;5.90;99.90;;;;;;4966550;28;20058;-71
2022/04/09 08:32:56;;;;;;;0.10;0.10;;;5.90;99.90;;;;;;4970573;28;20497;-72
2022/04/09 08:35:22;;;;;;;0.10;0.10;;;5.90;99.90;;;;;;4967627;28;20082;-71
2022/04/09 08:37:53;;;;;;;0.10;0.10;;;5.90;99.90;;;;;;4956062;28;20037;-71
2022/04/09 08:40:20;;;;;;;0.10;0.10;;;6.00;99.90;;;;;;4966725;28;20031;-70
2022/04/09 08:42:46;;;;;;;0.10;0.10;;;6.10;99.90;;;;;;4967663;28;20090;-71
2022/04/09 08:45:12;;;;;;;0.10;0.10;;;5.90;99.90;;;;;;4969538;28;20153;-71
2022/04/09 08:47:41;;;;;;;0.10;0.10;;;6.00;99.90;;;;;;4970795;28;20106;-71
2022/04/09 08:50:10;;;;;;;0.10;0.10;;;6.00;99.90;;;;;;4970080;28;20146;-71
2022/04/09 08:52:39;;;;;;;0.10;0.10;;;6.00;99.90;;;;;;4968441;28;20497;-72
2022/04/09 08:55:06;;;;;;;0.10;0.10;;;6.00;99.90;;;;;;4963866;28;20026;-73
2022/04/09 08:57:34;;;;;;;0.10;0.10;;;6.00;99.90;;;;;;4967278;28;20038;-71
2022/04/09 09:00:04;;;;;;;0.10;0.10;;;6.10;99.90;;;;;;4971284;28;20022;-73
2022/04/09 09:02:31;;;;;;;0.10;0.10;;;6.10;99.90;;;;;;4966548;28;20569;-71
2022/04/09 09:04:57;;;;;;;0.10;0.10;;;6.20;99.90;;;;;;4968021;28;20019;-73
2022/04/09 09:07:24;;;;;;;0.10;0.10;;;6.30;99.90;;;;;;4970741;28;20037;-72
2022/04/09 09:09:51;;;;;;;0.10;0.10;;;6.30;99.90;;;;;;4970388;28;20130;-73
2022/04/09 09:12:31;;;;;;;0.10;0.10;;;6.70;99.90;;;;;;4971170;28;20027;-72
2022/04/09 09:14:57;;;;;;;0.10;0.10;;;6.30;99.90;;;;;;4973029;28;20018;-72
2022/04/09 09:17:30;;;;;;;0.10;0.10;;;6.20;99.90;;;;;;4967236;28;20133;-72
2022/04/09 09:19:55;;;;;;;0.10;0.10;;;6.20;99.90;;;;;;4972283;28;20057;-72
2022/04/09 09:22:21;;;;;;;0.20;0.20;;;6.30;99.90;;;;;;4969469;28;20034;-70
2022/04/09 09:25:03;;;;;;;0.30;0.30;;;6.30;99.90;;;;;;4977524;28;20445;-71
2022/04/09 09:27:28;;;;;;;0.10;0.10;;;6.40;99.90;;;;;;4978474;28;20027;-71
2022/04/09 09:29:55;;;;;;;0.10;0.10;;;6.50;99.90;;;;;;4980697;28;20496;-72
2022/04/09 09:32:29;;;;;;;0.10;0.10;;;6.40;99.90;;;;;;4990121;28;20021;-73
2022/04/09 09:35:01;;;;;;;0.10;0.10;;;6.40;99.90;;;;;;4969592;28;20105;-72
2022/04/09 09:37:30;;;;;;;0.10;0.10;;;6.30;99.90;;;;;;4975974;28;20030;-72
2022/04/09 09:39:56;;;;;;;0.10;0.10;;;6.50;99.90;;;;;;4986445;28;20063;-71
2022/04/09 09:42:26;;;;;;;0.10;0.10;;;6.80;99.90;;;;;;4982028;28;20035;-73
2022/04/09 09:44:51;;;;;;;0.10;0.10;;;7.10;99.90;;;;;;4965838;28;20031;-72
2022/04/09 09:47:17;;;;;;;0.10;0.10;;;7.20;99.90;;;;;;4973779;28;20032;-72
2022/04/09 09:49:47;;;;;;;0.10;0.10;;;7.10;99.90;;;;;;4967367;28;20466;-71
2022/04/09 09:52:13;;;;;;;0.10;0.10;;;7.10;99.90;;;;;;4972889;28;20028;-74
2022/04/09 09:54:55;;;;;;;0.52;0.52;;;7.10;99.90;;;;;;4968784;28;20034;-74
2022/04/09 09:57:22;;;;;;;0.20;0.20;;;7.10;99.90;;;;;;4963772;28;20028;-73
2022/04/09 09:59:49;;;;;;;0.10;0.10;;;7.10;99.90;;;;;;4978730;28;20124;-72
2022/04/09 10:02:19;;;;;;;0.10;0.10;;;7.20;99.90;;;;;;4975393;28;20051;-72
2022/04/09 10:04:46;;;;;;;0.10;0.10;;;7.30;99.90;;;;;;4973327;28;20049;-73
2022/04/09 10:07:13;;;;;;;0.55;0.55;;;7.50;99.90;;;;;;4976370;28;20141;-73
2022/04/09 10:09:39;;;;;;;0.10;0.10;;;7.60;99.90;;;;;;4978286;28;20083;-72
2022/04/09 10:12:08;;;;;;;0.10;0.10;;;7.50;99.90;;;;;;4981624;28;20031;-72
2022/04/09 10:14:38;;;;;;;0.10;0.10;;;7.50;99.90;;;;;;4977325;28;20090;-73
2022/04/09 10:17:06;;;;;;;0.10;0.10;;;7.40;99.90;;;;;;4967132;28;20039;-73
2022/04/09 10:19:34;;;;;;;0.10;0.10;;;7.30;99.90;;;;;;4980933;28;20041;-73
2022/04/09 10:22:00;;;;;;;0.10;0.10;;;7.30;99.90;;;;;;4973401;28;20109;-72
2022/04/09 10:24:27;;;;;;;0.20;0.20;;;7.20;99.90;;;;;;4976942;28;20073;-72
2022/04/09 10:26:54;;;;;;;0.10;0.10;;;7.10;99.90;;;;;;4986337;28;20027;-72
2022/04/09 10:29:20;;;;;;;0.10;0.10;;;7.20;99.90;;;;;;4980208;28;20034;-72
2022/04/09 10:31:53;;;;;;;0.10;0.10;;;7.50;99.90;;;;;;4970218;28;20429;-72
2022/04/09 10:34:20;;;;;;;0.10;0.10;;;7.70;99.90;;;;;;4971965;28;20015;-73
2022/04/09 10:36:45;;;;;;;0.10;0.10;;;7.60;99.90;;;;;;4976996;28;20524;-72
2022/04/09 10:39:38;;;;;;;0.10;0.10;;;7.90;99.90;;;;;;4964542;28;20039;-71
2022/04/09 10:42:05;;;;;;;0.10;0.10;;;8.20;99.90;;;;;;4975802;28;20506;-74
2022/04/09 10:44:34;;;;;;;0.10;0.10;;;8.20;99.90;;;;;;4968917;28;20058;-71
2022/04/09 10:47:03;;;;;;;0.10;0.10;;;8.00;99.90;;;;;;4974917;28;20505;-73
2022/04/09 10:49:30;;;;;;;0.10;0.10;;;7.80;99.90;;;;;;4972634;28;20022;-74
2022/04/09 10:52:11;;;;;;;0.10;0.10;;;7.70;99.90;;;;;;4974497;28;20030;-75
2022/04/09 10:54:37;;;;;;;0.10;0.10;;;7.80;99.90;;;;;;4974603;28;20034;-73
2022/04/09 10:57:13;;;;;;;0.10;0.10;;;7.90;99.90;;;;;;4969791;28;20038;-73
2022/04/09 10:59:39;;;;;;;0.10;0.10;;;7.90;99.90;;;;;;4970732;28;20057;-74
2022/04/09 11:02:05;;;;;;;0.10;0.10;;;7.80;99.90;;;;;;4968329;28;20501;-73
2022/04/09 11:04:36;;;;;;;0.10;0.10;;;7.80;99.90;;;;;;4959255;28;20110;-72
2022/04/09 11:07:06;;;;;;;0.10;0.10;;;7.70;99.90;;;;;;4971079;28;20026;-73
2022/04/09 11:09:54;;;;;;;0.10;0.10;;;7.50;99.90;;;;;;4970685;28;20027;-69
2022/04/09 11:12:24;;;;;;;0.10;0.10;;;7.50;99.90;;;;;;4971390;28;20090;-71
2022/04/09 11:14:56;;;;;;;0.10;0.10;;;7.50;99.90;;;;;;4969113;28;20077;-68
2022/04/09 11:17:38;;;;;;;0.10;0.10;;;7.70;99.90;;;;;;4971479;28;20023;-70
2022/04/09 11:20:06;;;;;;;3.05;2.70;;;7.80;99.90;;;;;;4970245;28;20031;-70
2022/04/09 11:22:36;;;;;;;0.10;0.10;;;8.10;99.90;;;;;;4969222;28;20564;-75
2022/04/09 11:25:04;;;;;;;0.10;0.10;;;7.90;99.90;;;;;;4953787;28;20453;-67
2022/04/09 11:27:30;;;;;;;0.10;0.10;;;7.70;99.90;;;;;;4974105;28;20069;-67
2022/04/09 11:29:56;;;;;;;0.10;0.10;;;7.80;99.90;;;;;;4974772;28;20492;-69
2022/04/09 11:32:23;;;;;;;0.10;0.10;;;7.90;99.90;;;;;;4970469;28;20038;-67
2022/04/09 11:34:57;;;;;;;0.10;0.10;;;8.10;99.90;;;;;;4966084;28;20081;-66
2022/04/09 11:37:26;;;;;;;0.10;0.10;;;8.40;99.90;;;;;;4968650;28;20027;-68
2022/04/09 11:39:53;;;;;;;0.10;0.10;;;8.70;99.90;;;;;;4964314;28;20516;-67
2022/04/09 11:42:19;;;;;;;0.10;0.10;;;8.60;99.90;;;;;;4963644;28;20031;-68
2022/04/09 11:44:45;;;;;;;0.10;0.10;;;8.60;99.90;;;;;;4965715;28;20815;-68
2022/04/09 11:47:14;;;;;;;0.10;0.10;;;8.60;99.90;;;;;;4971335;28;20052;-67
2022/04/09 11:49:44;;;;;;;0.10;0.10;;;8.50;99.90;;;;;;4971770;28;20371;-66
2022/04/09 11:52:10;;;;;;;0.10;0.10;;;8.70;99.90;;;;;;4968947;28;20101;-66
2022/04/09 11:54:43;;;;;;;0.10;0.10;;;8.60;99.90;;;;;;4967191;28;20034;-66
2022/04/09 11:57:12;;;;;;;0.10;0.10;;;8.70;99.90;;;;;;4969200;28;20030;-70
2022/04/09 11:59:38;;;;;;;0.10;0.10;;;8.60;99.90;;;;;;4969666;28;20031;-67
2022/04/09 12:02:15;;;;;;;0.10;0.10;;;8.30;99.90;;;;;;4967597;28;20038;-68
2022/04/09 12:04:40;;;;;;;0.10;0.10;;;8.40;99.90;;;;;;4968494;28;20111;-66
2022/04/09 12:07:06;;;;;;;0.10;0.10;;;8.80;99.90;;;;;;4971006;28;20075;-66
2022/04/09 12:09:32;;;;;;;0.10;0.10;;;8.60;99.90;;;;;;4970542;28;20594;-66
2022/04/09 12:12:01;;;;;;;0.10;0.10;;;8.70;99.90;;;;;;4968693;28;21812;-66
2022/04/09 12:14:27;;;;;;;0.10;0.10;;;8.80;99.90;;;;;;4969154;28;20512;-66
2022/04/09 12:16:54;;;;;;;0.10;0.10;;;8.70;99.90;;;;;;4969340;28;20134;-67
2022/04/09 12:19:31;;;;;;;0.10;0.10;;;8.90;99.90;;;;;;4967218;28;20034;-68
2022/04/09 12:22:20;;;;;;;0.10;0.10;;;9.00;99.90;;;;;;4970021;28;20026;-66
2022/04/09 12:24:56;;;;;;;0.10;0.10;;;9.00;99.90;;;;;;4983763;28;20041;-66
2022/04/09 12:27:44;;;;;;;0.10;0.10;;;8.30;99.90;;;;;;4978313;28;20082;-65
2022/04/09 12:30:14;;;;;;;0.10;0.10;;;8.90;99.90;;;;;;4970955;28;20058;-66
2022/04/09 12:32:41;;;;;;;0.10;0.10;;;8.90;99.90;;;;;;4972878;28;20078;-66
2022/04/09 12:35:08;;;;;;;0.10;0.10;;;9.00;99.90;;;;;;4990764;28;20121;-67
2022/04/09 12:37:53;;;;;;;0.10;0.10;;;9.20;99.90;;;;;;4981961;28;20039;-65
2022/04/09 12:40:26;;;;;;;0.10;0.10;;;9.50;99.90;;;;;;4985208;28;20069;-66
2022/04/09 12:42:52;;;;;;;;;;;9.90;99.90;;;;;;4979534;28;20493;-66
2022/04/09 12:45:22;;;;;;;0.10;0.10;;;10.10;97.70;;;;;;4990798;22;19980;-64
2022/04/09 12:47:58;;;;;;;0.10;0.10;;;11.20;91.90;;;;;;4966258;28;20023;-63
2022/04/09 12:50:29;;;;;;;0.10;0.10;;;10.90;86.60;;;;;;4966566;28;20019;-63
2022/04/09 12:52:56;;;;;;;4.85;4.50;;;10.20;88.90;;;;;;4964821;28;20018;-64
2022/04/09 12:55:24;;;;;;;0.10;0.10;;;10.00;90.70;;;;;;4974353;28;20080;-64
2022/04/09 12:57:49;;;;;;;0.10;0.10;;;10.10;91.70;;;;;;4973192;28;20022;-66
2022/04/09 13:00:16;;;;;;;0.10;0.10;;;9.90;93.60;;;;;;4970110;28;20026;-63